Time;durP1;ratioP1;P1;durP2;ratioP2;P2;SDS_P1;SDS_P2;PMS_P1;PMS_P2;Temp;Humidity;BMP_temperature;BMP_pressure;BME280_temperature;BME280_humidity;BME280_pressure;Samples;Min_cycle;Max_cycle;Signal;HPM_P1;HPM_P2
2022/09/27 00:01:07;;;;;;;6.70;1.33;;;10.60;99.90;;;;;;5093239;28;20047;-58
2022/09/27 00:03:33;;;;;;;6.55;1.48;;;10.60;99.90;;;;;;5092148;28;20048;-58
2022/09/27 00:06:15;;;;;;;8.07;1.50;;;10.60;99.90;;;;;;5092998;28;20039;-58
2022/09/27 00:08:41;;;;;;;7.18;1.33;;;10.60;99.90;;;;;;5092697;28;20090;-58
2022/09/27 00:11:19;;;;;;;7.35;1.40;;;10.50;99.90;;;;;;5083608;28;20037;-58
2022/09/27 00:13:44;;;;;;;5.78;1.30;;;10.50;99.90;;;;;;5038570;28;20063;-58
2022/09/27 00:16:10;;;;;;;8.50;1.50;;;10.40;99.90;;;;;;5054288;28;20485;-58
2022/09/27 00:18:36;;;;;;;14.70;1.58;;;10.40;99.90;;;;;;5054476;28;20470;-58
2022/09/27 00:21:12;;;;;;;5.75;1.35;;;10.30;99.90;;;;;;5072342;28;20392;-59
2022/09/27 00:23:38;;;;;;;9.52;1.55;;;10.40;99.90;;;;;;5037311;28;20064;-58
2022/09/27 00:26:05;;;;;;;5.97;1.20;;;10.30;99.90;;;;;;5082106;28;20126;-58
2022/09/27 00:28:31;;;;;;;6.35;1.50;;;10.30;99.90;;;;;;5056567;28;20082;-58
2022/09/27 00:30:58;;;;;;;5.55;1.13;;;10.30;99.90;;;;;;5073754;28;20072;-58
2022/09/27 00:33:25;;;;;;;5.80;1.00;;;10.40;99.90;;;;;;5092101;28;20467;-58
2022/09/27 00:35:50;;;;;;;4.22;0.98;;;10.40;99.90;;;;;;5074120;28;20055;-59
2022/09/27 00:38:16;;;;;;;5.25;0.70;;;10.40;99.90;;;;;;5073615;28;20039;-58
2022/09/27 00:40:42;;;;;;;2.45;0.70;;;10.40;99.90;;;;;;5074486;28;20044;-58
2022/09/27 00:43:16;;;;;;;3.50;0.68;;;10.40;99.90;;;;;;5091483;28;20040;-58
2022/09/27 00:45:46;;;;;;;5.82;1.23;;;10.50;99.90;;;;;;5073999;28;20036;-58
2022/09/27 00:48:16;;;;;;;4.85;1.17;;;10.50;99.90;;;;;;5074272;28;20125;-58
2022/09/27 00:50:44;;;;;;;6.10;1.00;;;10.50;99.90;;;;;;5057843;28;20112;-58
2022/09/27 00:53:27;;;;;;;5.57;1.35;;;10.50;99.90;;;;;;5069137;28;20040;-58
2022/09/27 00:56:01;;;;;;;4.68;1.00;;;10.40;99.90;;;;;;5054036;28;20051;-59
2022/09/27 00:58:34;;;;;;;4.95;0.88;;;10.30;99.90;;;;;;5071093;28;20037;-58
2022/09/27 01:01:04;;;;;;;4.38;0.68;;;10.30;99.90;;;;;;5072054;28;20041;-58
2022/09/27 01:03:45;;;;;;;4.53;0.70;;;10.30;99.90;;;;;;5054202;28;20036;-58
2022/09/27 01:06:11;;;;;;;5.82;0.82;;;10.20;99.90;;;;;;5053448;28;20122;-58
2022/09/27 01:08:37;;;;;;;3.53;0.93;;;10.20;99.90;;;;;;5072057;28;20037;-58
2022/09/27 01:11:16;;;;;;;3.55;0.80;;;10.20;99.90;;;;;;5054146;28;20051;-58
2022/09/27 01:14:14;;;;;;;6.20;0.95;;;10.10;99.90;;;;;;5053508;28;20044;-58
2022/09/27 01:17:03;;;;;;;2.60;0.77;;;10.10;99.90;;;;;;5027132;28;20056;-59
2022/09/27 01:19:44;;;;;;;5.22;1.00;;;10.10;99.90;;;;;;5016256;28;20405;-59
2022/09/27 01:22:36;;;;;;;3.67;0.85;;;10.10;99.90;;;;;;5071359;28;20166;-58
2022/09/27 01:25:17;;;;;;;6.97;1.17;;;10.10;99.90;;;;;;5057206;28;20115;-58
2022/09/27 01:28:08;;;;;;;6.28;1.75;;;10.20;99.90;;;;;;5040821;28;20397;-58
2022/09/27 01:30:52;;;;;;;6.28;1.20;;;10.20;99.90;;;;;;5075900;28;20082;-58
2022/09/27 01:33:24;;;;;;;4.60;1.05;;;10.20;99.90;;;;;;5074513;28;20685;-58
2022/09/27 01:36:04;;;;;;;5.90;1.55;;;10.20;99.90;;;;;;5040887;28;20123;-58
2022/09/27 01:39:08;;;;;;;5.60;1.70;;;10.30;99.90;;;;;;5057491;28;20044;-58
2022/09/27 01:41:46;;;;;;;7.13;1.38;;;10.30;99.90;;;;;;5091187;28;20396;-59
2022/09/27 01:44:26;;;;;;;4.53;0.82;;;10.30;99.90;;;;;;5077323;28;20051;-59
2022/09/27 01:46:57;;;;;;;2.97;0.70;;;10.30;99.90;;;;;;5084090;28;20539;-59
2022/09/27 01:49:52;;;;;;;3.58;0.60;;;10.30;99.90;;;;;;5040017;28;20040;-59
2022/09/27 01:52:21;;;;;;;2.08;0.63;;;10.30;99.90;;;;;;5076091;28;20044;-58
2022/09/27 01:54:52;;;;;;;3.75;0.80;;;10.20;99.90;;;;;;5074349;28;20047;-58
2022/09/27 01:57:23;;;;;;;4.60;0.57;;;10.20;99.90;;;;;;5057312;28;20044;-59
2022/09/27 01:59:55;;;;;;;2.78;0.57;;;10.20;99.90;;;;;;5075246;28;20044;-58
2022/09/27 02:02:24;;;;;;;3.30;0.90;;;10.10;99.90;;;;;;5074353;28;20032;-59
2022/09/27 02:04:54;;;;;;;3.85;1.00;;;10.00;99.90;;;;;;5074967;28;20564;-59
2022/09/27 02:07:28;;;;;;;7.40;1.17;;;10.00;99.90;;;;;;5083332;28;20029;-58
2022/09/27 02:10:09;;;;;;;5.13;1.00;;;10.00;99.90;;;;;;5094705;28;20076;-58
2022/09/27 02:12:41;;;;;;;9.00;1.67;;;10.00;99.90;;;;;;5077256;28;20043;-58
2022/09/27 02:15:11;;;;;;;6.65;1.27;;;10.00;99.90;;;;;;5095141;28;20404;-58
2022/09/27 02:17:39;;;;;;;7.28;1.20;;;10.00;99.90;;;;;;5077892;28;20044;-58
2022/09/27 02:20:05;;;;;;;6.40;1.70;;;9.90;99.90;;;;;;5074899;28;20072;-58
2022/09/27 02:23:00;;;;;;;4.10;0.85;;;9.90;99.90;;;;;;5055979;28;20550;-58
2022/09/27 02:25:34;;;;;;;6.90;0.90;;;9.90;99.90;;;;;;5073578;28;20044;-58
2022/09/27 02:28:23;;;;;;;2.88;0.88;;;9.90;99.90;;;;;;5094875;28;20040;-58
2022/09/27 02:30:49;;;;;;;6.63;0.98;;;9.80;99.90;;;;;;5075973;28;20043;-58
2022/09/27 02:33:15;;;;;;;7.22;1.20;;;9.80;99.90;;;;;;5076276;28;20047;-58
2022/09/27 02:35:41;;;;;;;8.23;1.20;;;9.80;99.90;;;;;;5094808;28;20533;-58
2022/09/27 02:38:07;;;;;;;5.07;1.33;;;9.70;99.90;;;;;;5093837;28;20072;-58
2022/09/27 02:40:41;;;;;;;5.22;1.00;;;9.70;99.90;;;;;;5083740;28;20040;-59
2022/09/27 02:43:07;;;;;;;3.90;0.80;;;9.70;99.90;;;;;;5056419;28;20036;-59
2022/09/27 02:45:44;;;;;;;3.75;0.80;;;9.70;99.90;;;;;;5072172;28;20067;-59
2022/09/27 02:48:38;;;;;;;9.90;1.35;;;9.70;99.90;;;;;;5076385;28;20079;-59
2022/09/27 02:51:37;;;;;;;5.20;0.85;;;9.70;99.90;;;;;;5093495;28;20040;-59
2022/09/27 02:54:12;;;;;;;8.32;1.42;;;9.80;99.90;;;;;;5094538;28;20132;-59
2022/09/27 02:57:11;;;;;;;8.65;1.30;;;9.80;99.90;;;;;;5076540;28;20056;-59
2022/09/27 02:59:48;;;;;;;8.45;1.48;;;9.80;99.90;;;;;;5075339;28;20039;-58
2022/09/27 03:02:23;;;;;;;5.85;1.25;;;9.80;99.90;;;;;;5094316;28;20044;-58
2022/09/27 03:05:06;;;;;;;6.13;1.20;;;9.80;99.90;;;;;;5093410;28;20442;-58
2022/09/27 03:07:34;;;;;;;7.28;1.10;;;9.80;99.90;;;;;;5093960;28;20617;-58
2022/09/27 03:09:59;;;;;;;5.78;1.52;;;9.80;99.90;;;;;;5054367;28;20086;-58
2022/09/27 03:12:25;;;;;;;5.28;0.98;;;9.80;99.90;;;;;;5072140;28;20435;-58
2022/09/27 03:15:00;;;;;;;6.95;1.30;;;9.80;99.90;;;;;;5073719;28;20040;-58
2022/09/27 03:17:26;;;;;;;4.63;0.98;;;9.70;99.90;;;;;;5055850;28;20047;-58
2022/09/27 03:19:52;;;;;;;8.13;1.35;;;9.70;99.90;;;;;;5058992;28;20040;-58
2022/09/27 03:22:18;;;;;;;4.25;1.00;;;9.70;99.90;;;;;;5093781;28;20036;-58
2022/09/27 03:24:44;;;;;;;4.18;0.93;;;9.60;99.90;;;;;;5093978;28;20092;-58
2022/09/27 03:27:10;;;;;;;4.72;1.15;;;9.70;99.90;;;;;;5075317;28;20036;-58
2022/09/27 03:29:36;;;;;;;2.55;0.75;;;9.70;99.90;;;;;;5075793;28;20043;-58
2022/09/27 03:32:03;;;;;;;3.85;0.65;;;9.60;99.90;;;;;;5093631;28;20032;-58
2022/09/27 03:34:29;;;;;;;5.53;0.82;;;9.60;99.90;;;;;;5088458;28;20064;-58
2022/09/27 03:36:54;;;;;;;7.28;1.00;;;9.60;99.90;;;;;;5055325;28;20080;-58
2022/09/27 03:39:20;;;;;;;2.55;0.55;;;9.60;99.90;;;;;;5073557;28;20039;-58
2022/09/27 03:41:46;;;;;;;5.18;0.80;;;9.60;99.90;;;;;;5054730;28;20110;-58
2022/09/27 03:44:11;;;;;;;6.35;1.13;;;9.50;99.90;;;;;;5054956;28;20048;-58
2022/09/27 03:46:37;;;;;;;5.72;1.27;;;9.60;99.90;;;;;;5072133;28;20036;-58
2022/09/27 03:49:03;;;;;;;4.63;1.38;;;9.60;99.90;;;;;;5054904;28;20046;-58
2022/09/27 03:51:29;;;;;;;5.60;1.17;;;9.60;99.90;;;;;;5038394;28;20090;-58
2022/09/27 03:53:55;;;;;;;5.05;1.02;;;9.60;99.90;;;;;;5072184;28;20098;-58
2022/09/27 03:56:21;;;;;;;5.03;1.05;;;9.60;99.90;;;;;;5074519;28;20511;-58
2022/09/27 03:58:47;;;;;;;4.63;1.58;;;9.60;99.90;;;;;;5093211;28;20040;-57
2022/09/27 04:01:13;;;;;;;2.97;0.75;;;9.70;99.90;;;;;;5074241;28;20047;-58
2022/09/27 04:03:38;;;;;;;8.82;1.70;;;9.70;99.90;;;;;;5075116;28;20098;-58
2022/09/27 04:06:05;;;;;;;8.50;2.35;;;9.70;99.90;;;;;;5074943;28;20622;-58
2022/09/27 04:08:30;;;;;;;6.28;1.70;;;9.70;99.90;;;;;;5092458;28;20047;-58
2022/09/27 04:10:56;;;;;;;6.55;1.20;;;9.70;99.90;;;;;;5073371;28;20036;-58
2022/09/27 04:13:22;;;;;;;5.57;1.27;;;9.70;99.90;;;;;;5072450;28;20112;-58
2022/09/27 04:15:48;;;;;;;5.65;1.20;;;9.70;99.90;;;;;;5071813;28;20052;-58
2022/09/27 04:18:13;;;;;;;6.93;1.85;;;9.60;99.90;;;;;;5054593;28;20447;-58
2022/09/27 04:20:39;;;;;;;5.97;1.08;;;9.70;99.90;;;;;;5072676;28;20043;-58
2022/09/27 04:23:05;;;;;;;9.00;1.40;;;9.70;99.90;;;;;;5053460;28;20058;-58
2022/09/27 04:25:34;;;;;;;4.57;1.25;;;9.70;99.90;;;;;;5072415;28;20045;-58
2022/09/27 04:28:01;;;;;;;3.85;0.95;;;9.70;99.90;;;;;;5054454;28;20429;-59
2022/09/27 04:30:28;;;;;;;6.30;1.08;;;9.70;99.90;;;;;;5071561;28;20043;-58
2022/09/27 04:32:53;;;;;;;3.35;0.70;;;9.60;99.90;;;;;;5072082;28;20526;-58
2022/09/27 04:38:03;;;;;;;4.00;0.75;;;9.60;99.90;;;;;;5071442;28;20622;-58
2022/09/27 04:40:32;;;;;;;3.67;1.15;;;9.60;99.90;;;;;;5054284;28;20044;-58
2022/09/27 04:42:58;;;;;;;5.78;0.90;;;9.60;99.90;;;;;;5070945;28;20056;-59
2022/09/27 04:45:24;;;;;;;10.25;1.30;;;9.60;99.90;;;;;;5037387;28;20119;-59
2022/09/27 04:47:50;;;;;;;5.35;1.10;;;9.70;99.90;;;;;;5037587;28;20043;-59
2022/09/27 04:50:17;;;;;;;5.30;0.95;;;9.60;99.90;;;;;;5053374;28;20177;-59
2022/09/27 04:52:43;;;;;;;3.60;0.68;;;9.70;99.90;;;;;;5081441;28;20040;-59
2022/09/27 04:55:09;;;;;;;5.80;0.98;;;9.70;99.90;;;;;;5092373;28;20040;-59
2022/09/27 04:57:35;;;;;;;4.57;1.20;;;9.70;99.90;;;;;;5056499;28;20123;-59
2022/09/27 05:00:02;;;;;;;3.30;0.95;;;9.70;99.90;;;;;;5073907;28;20476;-59
2022/09/27 05:02:28;;;;;;;7.03;1.38;;;9.70;99.90;;;;;;5092032;28;20071;-59
2022/09/27 05:04:59;;;;;;;4.90;1.00;;;9.70;99.90;;;;;;5073514;28;20075;-59
2022/09/27 05:07:26;;;;;;;4.68;1.10;;;9.70;99.90;;;;;;5065144;28;20028;-59
2022/09/27 05:09:52;;;;;;;2.63;0.85;;;9.60;99.90;;;;;;5059365;28;20044;-59
2022/09/27 05:12:18;;;;;;;3.70;1.23;;;9.60;99.90;;;;;;5070830;28;20116;-59
2022/09/27 05:14:44;;;;;;;4.82;1.10;;;9.60;99.90;;;;;;5071779;28;20430;-59
2022/09/27 05:17:10;;;;;;;16.30;7.70;;;9.60;99.90;;;;;;5054162;28;20036;-59
2022/09/27 05:19:38;;;;;;;6.53;3.00;;;9.60;99.90;;;;;;5053190;28;20036;-59
2022/09/27 05:22:07;;;;;;;5.72;1.50;;;9.50;99.90;;;;;;5071579;28;20497;-59
2022/09/27 05:24:34;;;;;;;4.68;1.58;;;9.60;99.90;;;;;;5070571;28;20055;-59
2022/09/27 05:27:00;;;;;;;4.50;1.95;;;9.60;99.90;;;;;;5069842;28;20111;-59
2022/09/27 05:29:27;;;;;;;5.95;4.35;;;9.60;99.90;;;;;;5071572;28;20036;-59
2022/09/27 05:31:53;;;;;;;4.97;2.20;;;9.60;99.90;;;;;;5037173;28;20128;-59
2022/09/27 05:34:21;;;;;;;3.33;1.00;;;9.60;99.90;;;;;;5070911;28;20115;-60
2022/09/27 05:36:47;;;;;;;4.38;1.10;;;9.70;99.90;;;;;;5071729;28;20090;-59
2022/09/27 05:39:15;;;;;;;8.13;2.28;;;9.70;99.90;;;;;;5073149;28;20040;-59
2022/09/27 05:41:41;;;;;;;4.75;2.40;;;9.70;99.90;;;;;;5072823;28;20496;-60
2022/09/27 05:44:07;;;;;;;4.65;1.70;;;9.60;99.90;;;;;;5091181;28;20107;-60
2022/09/27 05:46:33;;;;;;;4.80;1.30;;;9.60;99.90;;;;;;5072842;28;20525;-59
2022/09/27 05:48:58;;;;;;;5.47;1.77;;;9.70;99.90;;;;;;5091765;28;20037;-59
2022/09/27 05:51:26;;;;;;;3.63;1.50;;;9.60;99.90;;;;;;5082667;28;20376;-59
2022/09/27 06:31:45;;;;;;;4.90;1.10;;;9.70;99.90;;;;;;5058602;28;20133;-58
2022/09/27 06:34:11;;;;;;;4.30;0.95;;;9.70;99.90;;;;;;5033751;28;20061;-58
2022/09/27 06:36:37;;;;;;;3.63;0.93;;;9.70;99.90;;;;;;5052278;28;20052;-59
2022/09/27 06:39:02;;;;;;;4.18;1.20;;;9.70;99.90;;;;;;5043182;28;20045;-59
2022/09/27 06:41:28;;;;;;;3.08;0.80;;;9.70;99.90;;;;;;5039635;28;20502;-58
2022/09/27 06:43:55;;;;;;;2.47;0.77;;;9.60;99.90;;;;;;5051626;28;20039;-58
2022/09/27 06:46:20;;;;;;;5.18;1.40;;;9.60;99.90;;;;;;5052998;28;20029;-58
2022/09/27 06:48:46;;;;;;;3.67;0.70;;;9.60;99.90;;;;;;5052767;28;20106;-59
2022/09/27 06:51:12;;;;;;;6.07;2.30;;;9.60;99.90;;;;;;5047652;28;20041;-58
2022/09/27 06:53:38;;;;;;;6.93;1.55;;;9.60;99.90;;;;;;5041277;28;20569;-58
2022/09/27 06:56:03;;;;;;;3.40;1.00;;;9.60;99.90;;;;;;5035310;28;20047;-61
2022/09/27 07:01:14;;;;;;;4.20;1.63;;;9.60;99.90;;;;;;5052010;28;20056;-60
2022/09/27 07:03:42;;;;;;;4.32;1.63;;;9.60;99.90;;;;;;5052233;28;20468;-60
2022/09/27 07:06:21;;;;;;;3.00;0.80;;;9.60;99.90;;;;;;5054037;28;20037;-59
2022/09/27 07:08:51;;;;;;;2.22;0.60;;;9.70;99.90;;;;;;5054134;28;20041;-59
2022/09/27 07:11:17;;;;;;;1.90;0.68;;;9.60;99.90;;;;;;5049654;28;20025;-60
2022/09/27 07:13:43;;;;;;;2.42;0.77;;;9.70;99.90;;;;;;5034899;28;20433;-60
2022/09/27 07:16:14;;;;;;;2.50;0.68;;;9.70;99.90;;;;;;5039041;28;20029;-60
2022/09/27 07:18:41;;;;;;;8.27;1.17;;;9.70;99.90;;;;;;5052235;28;20041;-60
2022/09/27 07:21:07;;;;;;;2.33;0.90;;;9.70;99.90;;;;;;5052740;28;20121;-60
2022/09/27 07:23:34;;;;;;;3.70;1.40;;;9.70;99.90;;;;;;5052198;28;20091;-60
2022/09/27 07:26:06;;;;;;;10.02;1.13;;;9.80;99.90;;;;;;5035483;28;20739;-60
2022/09/27 07:28:32;;;;;;;3.33;1.27;;;9.80;99.90;;;;;;5032659;28;20060;-60
2022/09/27 07:30:58;;;;;;;5.82;1.27;;;9.90;99.90;;;;;;5037482;28;20363;-60
2022/09/27 07:33:24;;;;;;;3.80;1.10;;;9.80;99.90;;;;;;5083716;28;20048;-60
2022/09/27 07:35:49;;;;;;;2.55;0.90;;;9.80;99.90;;;;;;5075531;28;20504;-60
2022/09/27 07:38:15;;;;;;;3.60;0.95;;;9.90;99.90;;;;;;5093466;28;20050;-61
2022/09/27 07:40:42;;;;;;;4.38;1.00;;;9.80;99.90;;;;;;5060416;28;20119;-60
2022/09/27 07:43:08;;;;;;;9.05;1.15;;;9.80;99.90;;;;;;5073196;28;20438;-61
2022/09/27 07:45:35;;;;;;;5.53;1.20;;;9.90;99.90;;;;;;5055554;28;20124;-61
2022/09/27 07:48:04;;;;;;;4.57;1.50;;;9.90;99.90;;;;;;5072425;28;20047;-61
2022/09/27 07:50:29;;;;;;;3.95;1.10;;;10.00;99.90;;;;;;5059498;28;20032;-61
2022/09/27 07:52:56;;;;;;;3.67;1.00;;;10.10;99.90;;;;;;5092454;28;20044;-61
2022/09/27 07:55:23;;;;;;;4.95;1.10;;;10.10;99.90;;;;;;5091546;28;20059;-61
2022/09/27 07:57:49;;;;;;;3.60;0.85;;;10.20;99.90;;;;;;5093350;28;20051;-62
2022/09/27 08:00:18;;;;;;;3.00;0.73;;;10.30;99.90;;;;;;5070236;28;20055;-62
2022/09/27 08:02:45;;;;;;;3.63;0.90;;;10.30;99.90;;;;;;5057945;28;20051;-61
2022/09/27 08:05:12;;;;;;;2.88;0.95;;;10.40;99.90;;;;;;5073685;28;20134;-60
2022/09/27 08:07:38;;;;;;;4.45;1.23;;;10.40;99.90;;;;;;5074691;28;20166;-60
2022/09/27 08:10:05;;;;;;;6.45;1.08;;;10.40;99.90;;;;;;5080334;28;20048;-60
2022/09/27 08:12:31;;;;;;;6.13;2.20;;;10.50;99.90;;;;;;5072709;28;20101;-60
2022/09/27 08:15:00;;;;;;;5.97;1.60;;;10.60;99.90;;;;;;5075965;28;20041;-60
2022/09/27 08:17:27;;;;;;;4.30;1.13;;;10.60;99.90;;;;;;5089041;28;20040;-61
2022/09/27 08:19:53;;;;;;;3.38;1.08;;;10.70;99.90;;;;;;5098677;28;20036;-61
2022/09/27 08:22:20;;;;;;;3.58;0.90;;;10.80;99.90;;;;;;5091778;28;20123;-60
2022/09/27 08:24:46;;;;;;;2.38;0.77;;;10.90;99.90;;;;;;5065433;28;20048;-60
2022/09/27 08:27:12;;;;;;;4.15;1.00;;;11.00;99.90;;;;;;5054646;28;20120;-61
2022/09/27 08:29:40;;;;;;;3.53;0.90;;;11.10;99.90;;;;;;5072224;28;20111;-60
2022/09/27 08:32:07;;;;;;;3.92;1.10;;;11.20;99.90;;;;;;5071905;28;20444;-61
2022/09/27 08:34:33;;;;;;;4.70;1.17;;;11.30;99.90;;;;;;5055864;28;20067;-60
2022/09/27 08:36:59;;;;;;;8.65;2.83;;;11.40;99.90;;;;;;5054042;28;20068;-61
2022/09/27 08:39:24;;;;;;;4.75;1.70;;;11.50;99.90;;;;;;5072088;28;20041;-60
2022/09/27 09:00:10;;;;;;;6.20;1.10;;;11.20;99.90;;;;;;5092024;28;20030;-61
2022/09/27 09:02:36;;;;;;;2.80;0.93;;;11.10;99.90;;;;;;5074513;28;20052;-61
2022/09/27 09:05:08;;;;;;;9.45;4.38;;;11.10;99.90;;;;;;5070915;28;20071;-61
2022/09/27 09:07:56;;;;;;;33.35;21.85;;;11.10;99.90;;;;;;5081177;28;20040;-61
2022/09/27 09:13:53;;;;;;;14.15;5.40;;;11.10;99.90;;;;;;5092246;28;20075;-61
2022/09/27 09:16:37;;;;;;;15.45;7.03;;;11.10;99.90;;;;;;5070558;28;20044;-61
2022/09/27 09:19:14;;;;;;;17.85;10.00;;;11.20;99.90;;;;;;5067161;28;20048;-62
2022/09/27 09:21:59;;;;;;;45.80;28.05;;;11.20;99.90;;;;;;5086285;28;20044;-61
2022/09/27 09:24:49;;;;;;;11.00;6.33;;;11.20;99.90;;;;;;5053243;28;20123;-61
2022/09/27 09:27:47;;;;;;;7.32;3.35;;;11.20;99.90;;;;;;5053729;28;20056;-61
2022/09/27 09:30:21;;;;;;;9.10;2.85;;;11.20;99.90;;;;;;5071883;28;20047;-61
2022/09/27 09:33:05;;;;;;;3.38;1.17;;;11.30;99.90;;;;;;5053029;28;20052;-61
2022/09/27 09:35:38;;;;;;;3.95;1.05;;;11.40;99.90;;;;;;5072914;28;20055;-60
2022/09/27 09:38:11;;;;;;;5.00;1.55;;;11.40;99.90;;;;;;5072980;28;20044;-60
2022/09/27 09:40:58;;;;;;;5.07;1.33;;;11.50;99.90;;;;;;5073578;28;20048;-60
2022/09/27 09:43:40;;;;;;;4.78;1.10;;;11.60;99.90;;;;;;5072342;28;20044;-60
2022/09/27 09:46:33;;;;;;;5.78;1.27;;;11.60;99.90;;;;;;5084903;28;20056;-60
2022/09/27 09:48:59;;;;;;;1.15;0.60;;;11.60;99.90;;;;;;5077947;28;20074;-61
2022/09/27 09:51:38;;;;;;;1.25;0.60;;;11.30;99.90;;;;;;5075246;28;20051;-61
2022/09/27 09:54:18;;;;;;;2.63;0.93;;;11.10;99.90;;;;;;5056753;28;20035;-62
2022/09/27 09:57:03;;;;;;;4.80;1.90;;;10.80;99.90;;;;;;5058470;28;20538;-61
2022/09/27 09:59:37;;;;;;;3.83;2.00;;;10.80;99.90;;;;;;5056584;28;20106;-61
2022/09/27 10:02:23;;;;;;;3.63;1.33;;;10.80;99.90;;;;;;5057430;28;20032;-61
2022/09/27 10:04:48;;;;;;;6.15;1.60;;;10.80;99.90;;;;;;5043261;28;20556;-61
2022/09/27 10:07:21;;;;;;;4.13;1.17;;;10.70;99.90;;;;;;5074724;28;20118;-61
2022/09/27 10:09:47;;;;;;;1.92;0.70;;;10.80;99.90;;;;;;5076499;28;20568;-61
2022/09/27 10:12:13;;;;;;;3.78;1.13;;;10.80;99.90;;;;;;5061105;28;20127;-61
2022/09/27 10:14:41;;;;;;;3.08;0.75;;;10.70;99.90;;;;;;5085457;28;20110;-62
2022/09/27 10:17:13;;;;;;;4.18;0.43;;;10.60;99.90;;;;;;5073466;28;20523;-61
2022/09/27 10:19:41;;;;;;;2.80;0.55;;;10.60;99.90;;;;;;5053855;28;20048;-61
2022/09/27 10:22:37;;;;;;;3.53;0.80;;;10.60;99.90;;;;;;5053380;28;20102;-61
2022/09/27 10:25:06;;;;;;;1.55;0.50;;;10.60;99.90;;;;;;5056522;28;20127;-61
2022/09/27 10:27:45;;;;;;;10.23;0.88;;;10.70;99.90;;;;;;5071487;28;20040;-61
2022/09/27 10:30:28;;;;;;;1.30;0.40;;;10.70;99.90;;;;;;5070104;28;20036;-61
2022/09/27 10:33:05;;;;;;;1.63;0.50;;;10.80;99.90;;;;;;5063984;28;20044;-60
2022/09/27 10:35:41;;;;;;;4.07;0.95;;;10.80;99.90;;;;;;5089134;28;20060;-61
2022/09/27 10:38:21;;;;;;;2.67;0.93;;;10.90;99.90;;;;;;5091916;28;20055;-61
2022/09/27 10:40:49;;;;;;;4.75;1.15;;;10.90;99.90;;;;;;5073781;28;20050;-61
2022/09/27 10:43:34;;;;;;;4.45;2.55;;;11.00;99.90;;;;;;5061816;28;20052;-61
2022/09/27 10:46:11;;;;;;;4.70;1.88;;;11.00;99.90;;;;;;5081315;28;20131;-62
2022/09/27 10:48:39;;;;;;;6.13;1.17;;;11.10;99.90;;;;;;5072864;28;20385;-61
2022/09/27 10:51:17;;;;;;;2.80;0.90;;;11.20;99.90;;;;;;5074023;28;20044;-62
2022/09/27 10:53:45;;;;;;;4.47;1.45;;;11.30;99.90;;;;;;5076898;28;20036;-62
2022/09/27 10:56:32;;;;;;;5.43;2.20;;;11.40;99.90;;;;;;5057413;28;20045;-62
2022/09/27 10:59:01;;;;;;;6.28;2.33;;;11.50;99.90;;;;;;5073498;28;20508;-61
2022/09/27 11:01:39;;;;;;;4.40;1.23;;;11.40;99.90;;;;;;5074386;28;20043;-62
2022/09/27 11:04:06;;;;;;;3.55;0.98;;;11.40;99.90;;;;;;5038798;28;20040;-62
2022/09/27 11:06:37;;;;;;;4.45;1.50;;;11.30;99.90;;;;;;5074255;28;20044;-61
2022/09/27 11:09:19;;;;;;;5.43;3.03;;;11.30;99.90;;;;;;5078710;28;20041;-61
2022/09/27 11:11:45;;;;;;;5.80;4.45;;;11.30;99.90;;;;;;5059028;28;20032;-61
2022/09/27 11:14:22;;;;;;;2.80;1.00;;;11.30;99.90;;;;;;5056546;28;20114;-60
2022/09/27 11:17:09;;;;;;;3.97;1.10;;;11.30;99.90;;;;;;5072019;28;20047;-61
2022/09/27 11:19:55;;;;;;;6.95;1.25;;;11.50;99.90;;;;;;5073888;28;20432;-61
2022/09/27 11:22:29;;;;;;;6.03;1.10;;;11.50;99.90;;;;;;5072221;28;20108;-61
2022/09/27 11:25:33;;;;;;;5.78;1.30;;;11.60;99.90;;;;;;5037891;28;20047;-61
2022/09/27 11:28:26;;;;;;;4.18;0.80;;;11.60;99.90;;;;;;5073762;28;20082;-62
2022/09/27 11:31:50;;;;;;;1.73;0.65;;;11.50;99.90;;;;;;5075119;28;20039;-61
2022/09/27 11:34:36;;;;;;;3.03;1.00;;;11.40;99.90;;;;;;5011048;28;20057;-63
2022/09/27 11:37:49;;;;;;;4.75;1.20;;;11.30;99.90;;;;;;5011797;28;20116;-63
2022/09/27 11:40:22;;;;;;;2.33;0.70;;;11.30;99.90;;;;;;5069004;28;20055;-63
2022/09/27 11:43:06;;;;;;;2.28;0.60;;;11.40;99.90;;;;;;5074815;28;20070;-63
2022/09/27 11:45:44;;;;;;;4.63;0.75;;;11.40;99.90;;;;;;5071035;28;20051;-64
2022/09/27 11:48:26;;;;;;;3.67;0.95;;;11.50;99.90;;;;;;5073266;28;20116;-64
2022/09/27 11:51:13;;;;;;;2.78;0.82;;;11.60;99.90;;;;;;5072218;28;20123;-64
2022/09/27 11:53:53;;;;;;;3.30;0.80;;;11.60;99.90;;;;;;5055421;28;20062;-64
2022/09/27 11:56:48;;;;;;;1.10;0.45;;;11.60;99.90;;;;;;5078112;28;20031;-64
2022/09/27 11:59:32;;;;;;;4.20;0.70;;;11.50;99.90;;;;;;5074261;28;20040;-63
2022/09/27 12:02:28;;;;;;;2.47;0.80;;;11.50;99.90;;;;;;5075311;28;20075;-63
2022/09/27 12:05:22;;;;;;;2.80;0.73;;;11.50;99.90;;;;;;5070836;28;20052;-63
2022/09/27 12:08:25;;;;;;;3.63;0.70;;;11.60;99.90;;;;;;5071569;28;20520;-60
2022/09/27 12:10:59;;;;;;;4.53;1.10;;;11.70;99.90;;;;;;5054542;28;20101;-60
2022/09/27 12:13:38;;;;;;;3.80;0.90;;;11.80;99.90;;;;;;5071648;28;20362;-60
2022/09/27 12:16:04;;;;;;;5.15;0.95;;;11.90;99.90;;;;;;5054926;28;20044;-61
2022/09/27 12:18:40;;;;;;;2.60;0.75;;;12.00;99.90;;;;;;5088476;28;20442;-61
2022/09/27 12:21:08;;;;;;;5.47;0.80;;;12.00;99.90;;;;;;5072046;28;20408;-62
2022/09/27 12:23:47;;;;;;;3.15;0.95;;;11.90;99.90;;;;;;5054631;28;20052;-61
2022/09/27 12:26:15;;;;;;;4.03;0.70;;;11.80;99.90;;;;;;5054896;28;20045;-61
2022/09/27 12:29:02;;;;;;;3.17;0.70;;;11.60;99.90;;;;;;5072321;28;20036;-60
2022/09/27 12:31:55;;;;;;;1.90;0.50;;;11.60;99.90;;;;;;5085226;28;20044;-61
2022/09/27 12:34:20;;;;;;;3.92;0.90;;;11.50;99.90;;;;;;5061352;28;20062;-61
2022/09/27 12:37:01;;;;;;;4.90;0.90;;;11.40;99.90;;;;;;5086133;28;20040;-61
2022/09/27 12:39:31;;;;;;;3.40;0.82;;;11.30;99.90;;;;;;5074648;28;20496;-61
2022/09/27 12:42:05;;;;;;;3.38;0.82;;;11.20;99.90;;;;;;5072934;28;20055;-61
2022/09/27 12:44:40;;;;;;;3.83;0.70;;;11.20;99.90;;;;;;5092217;28;20480;-61
2022/09/27 12:47:09;;;;;;;3.30;0.60;;;11.20;99.90;;;;;;5073875;28;20284;-61
2022/09/27 12:49:52;;;;;;;2.85;0.70;;;11.20;99.90;;;;;;5085667;28;20115;-61
2022/09/27 12:52:24;;;;;;;9.95;4.35;;;11.10;99.90;;;;;;5074621;28;20037;-61
2022/09/27 12:55:28;;;;;;;4.28;1.08;;;11.10;99.90;;;;;;5051535;28;20045;-61
2022/09/27 12:58:35;;;;;;;4.78;1.20;;;11.20;99.90;;;;;;5049647;28;20093;-61
2022/09/27 13:01:26;;;;;;;3.63;1.17;;;11.30;99.90;;;;;;5071248;28;20032;-61
2022/09/27 13:04:09;;;;;;;2.22;0.75;;;11.30;99.90;;;;;;5053302;28;20048;-61
2022/09/27 13:06:46;;;;;;;3.72;0.70;;;11.40;99.90;;;;;;5072244;28;20102;-61
2022/09/27 13:09:38;;;;;;;5.03;0.70;;;11.40;99.90;;;;;;5054288;28;20041;-61
2022/09/27 13:12:38;;;;;;;3.85;0.80;;;11.40;99.90;;;;;;5088009;28;20376;-61
2022/09/27 13:15:24;;;;;;;3.30;0.65;;;11.40;99.90;;;;;;5059713;28;20048;-61
2022/09/27 13:18:02;;;;;;;5.18;0.80;;;11.50;99.90;;;;;;5053392;28;20115;-61
2022/09/27 13:20:38;;;;;;;4.80;0.77;;;11.40;99.90;;;;;;5075926;28;20539;-62
2022/09/27 13:23:18;;;;;;;4.97;0.98;;;11.30;99.90;;;;;;5058397;28;20049;-62
2022/09/27 13:25:50;;;;;;;3.67;0.80;;;11.10;99.90;;;;;;5072009;28;20095;-62
2022/09/27 13:28:30;;;;;;;5.45;1.00;;;10.90;99.90;;;;;;5075520;28;20509;-62
2022/09/27 13:31:07;;;;;;;7.25;1.55;;;10.80;99.90;;;;;;5057487;28;20098;-62
2022/09/27 13:33:42;;;;;;;5.15;1.05;;;10.70;99.90;;;;;;5074333;28;20052;-61
2022/09/27 13:36:25;;;;;;;3.92;1.10;;;10.60;99.90;;;;;;5074434;28;20052;-61
2022/09/27 13:39:00;;;;;;;6.55;1.35;;;10.60;99.90;;;;;;5057328;28;20041;-61
2022/09/27 13:41:32;;;;;;;3.92;1.10;;;10.50;99.90;;;;;;5075555;28;20051;-62
2022/09/27 13:44:09;;;;;;;4.63;1.27;;;10.50;99.90;;;;;;5092370;28;20369;-61
2022/09/27 13:46:35;;;;;;;5.00;1.20;;;10.60;99.90;;;;;;5081655;28;20411;-61
2022/09/27 13:49:23;;;;;;;5.40;0.75;;;10.60;99.90;;;;;;5090677;28;20072;-61
2022/09/27 13:51:52;;;;;;;7.25;2.25;;;10.80;99.90;;;;;;5075936;28;20475;-61
2022/09/27 13:54:33;;;;;;;5.07;1.17;;;10.80;99.90;;;;;;5071979;28;20476;-61
2022/09/27 13:56:59;;;;;;;4.60;1.15;;;10.90;99.90;;;;;;5056512;28;20057;-60
2022/09/27 13:59:42;;;;;;;3.47;1.10;;;10.90;99.90;;;;;;5073176;28;20041;-60
2022/09/27 14:02:08;;;;;;;2.22;0.90;;;10.90;99.90;;;;;;5074405;28;20048;-60
2022/09/27 14:04:47;;;;;;;4.25;1.00;;;10.90;99.90;;;;;;5073988;28;20105;-60
2022/09/27 14:07:16;;;;;;;3.28;0.57;;;10.90;99.90;;;;;;5071104;28;20051;-61
2022/09/27 14:09:46;;;;;;;4.60;0.70;;;10.90;99.90;;;;;;5055957;28;20054;-61
2022/09/27 14:12:18;;;;;;;3.10;0.90;;;11.00;99.90;;;;;;5054244;28;20048;-61
2022/09/27 14:14:46;;;;;;;3.28;0.93;;;11.10;99.90;;;;;;5079107;28;20039;-61
2022/09/27 14:17:12;;;;;;;3.67;0.73;;;11.10;99.90;;;;;;5076445;28;20449;-61
2022/09/27 14:19:43;;;;;;;2.30;0.70;;;11.20;99.90;;;;;;5067582;28;20048;-61
2022/09/27 14:22:13;;;;;;;4.25;0.85;;;11.20;99.90;;;;;;5071127;28;20058;-60
2022/09/27 14:24:39;;;;;;;3.60;0.60;;;11.30;99.90;;;;;;5082554;28;20140;-61
2022/09/27 14:27:25;;;;;;;4.68;0.90;;;11.30;99.90;;;;;;5072156;28;20044;-61